Time;durP1;ratioP1;P1;durP2;ratioP2;P2;SDS_P1;SDS_P2;PMS_P1;PMS_P2;Temp;Humidity;BMP_temperature;BMP_pressure;BME280_temperature;BME280_humidity;BME280_pressure;Samples;Min_cycle;Max_cycle;Signal;HPM_P1;HPM_P2
2023/11/16 00:01:50;;;;;;;23.52;13.57;;;;;;;5.81;100.00;100760.06;4930210;29;20106;-46
2023/11/16 00:04:17;;;;;;;32.83;14.70;;;;;;;5.81;100.00;100771.88;4930652;29;20048;-45
2023/11/16 00:06:44;;;;;;;27.52;14.32;;;;;;;5.81;100.00;100773.81;4929223;29;20048;-45
2023/11/16 00:09:12;;;;;;;25.52;13.10;;;;;;;5.81;100.00;100771.88;4930000;29;20054;-49
2023/11/16 00:11:40;;;;;;;27.17;13.30;;;;;;;5.81;100.00;100771.88;4930525;29;20071;-45
2023/11/16 00:14:10;;;;;;;34.35;14.05;;;;;;;5.80;100.00;100763.97;4930038;29;20067;-46
2023/11/16 00:16:37;;;;;;;27.50;13.70;;;;;;;5.82;100.00;100761.69;4930959;29;20414;-46
2023/11/16 00:19:05;;;;;;;32.40;13.60;;;;;;;5.85;100.00;100756.41;4930522;29;20036;-47
2023/11/16 00:21:32;;;;;;;23.08;11.80;;;;;;;5.84;100.00;100754.78;4930924;29;21061;-47
2023/11/16 00:23:59;;;;;;;32.13;13.57;;;;;;;5.84;100.00;100745.72;4930173;29;20036;-45
2023/11/16 00:26:27;;;;;;;21.00;11.10;;;;;;;5.85;100.00;100750.13;4930448;29;20502;-46
2023/11/16 00:28:55;;;;;;;21.70;10.27;;;;;;;5.85;100.00;100742.66;4930644;29;20040;-45
2023/11/16 00:31:23;;;;;;;26.80;13.65;;;;;;;5.83;100.00;100744.88;4930633;29;20050;-46
2023/11/16 00:33:50;;;;;;;21.63;12.75;;;;;;;5.82;100.00;100745.22;4930868;29;20047;-45
2023/11/16 00:36:18;;;;;;;20.70;10.45;;;;;;;5.82;100.00;100739.72;4930205;29;20577;-46
2023/11/16 00:38:47;;;;;;;25.38;11.25;;;;;;;5.82;100.00;100728.75;4930275;29;20058;-46
2023/11/16 00:41:15;;;;;;;22.50;10.52;;;;;;;5.82;100.00;100720.50;4930465;29;20067;-46
2023/11/16 00:43:43;;;;;;;19.92;11.25;;;;;;;5.82;100.00;100720.50;4930972;29;20410;-45
2023/11/16 00:46:13;;;;;;;17.58;9.93;;;;;;;5.82;100.00;100723.25;4928507;29;20073;-46
2023/11/16 00:48:40;;;;;;;27.30;10.50;;;;;;;5.83;100.00;100708.38;4928278;29;20058;-46
2023/11/16 00:51:10;;;;;;;21.63;9.75;;;;;;;5.83;100.00;100700.13;4928304;29;20059;-46
2023/11/16 00:53:42;;;;;;;24.95;10.93;;;;;;;5.84;100.00;100693.50;4928556;29;20059;-48
2023/11/16 00:56:10;;;;;;;20.73;8.50;;;;;;;5.86;100.00;100705.03;4928009;29;20099;-50
2023/11/16 00:58:44;;;;;;;21.13;9.07;;;;;;;5.89;100.00;100701.66;4929366;29;20048;-46
2023/11/16 01:01:15;;;;;;;20.48;10.90;;;;;;;5.90;100.00;100697.78;4931371;29;20094;-46
2023/11/16 01:03:44;;;;;;;21.67;10.63;;;;;;;5.91;100.00;100689.22;4932521;29;20071;-45
2023/11/16 01:06:11;;;;;;;20.40;10.80;;;;;;;5.91;100.00;100689.22;4931514;29;20055;-46
2023/11/16 01:08:38;;;;;;;24.85;10.98;;;;;;;5.94;100.00;100691.34;4932433;29;20142;-45
2023/11/16 01:11:07;;;;;;;21.58;9.48;;;;;;;5.95;100.00;100683.91;4932538;29;20043;-46
2023/11/16 01:13:41;;;;;;;23.70;10.52;;;;;;;5.98;100.00;100683.28;4931698;29;20126;-46
2023/11/16 01:16:15;;;;;;;25.90;10.88;;;;;;;5.97;100.00;100679.72;4931093;29;20079;-45
2023/11/16 01:18:46;;;;;;;20.80;10.88;;;;;;;5.96;100.00;100674.53;4932468;29;20499;-45
2023/11/16 01:21:14;;;;;;;19.30;11.75;;;;;;;5.96;100.00;100666.28;4930659;29;20516;-45
2023/11/16 01:23:44;;;;;;;23.92;11.45;;;;;;;5.97;100.00;100665.16;4932191;29;20047;-45
2023/11/16 01:26:15;;;;;;;19.70;9.68;;;;;;;5.98;100.00;100666.78;4932500;29;20087;-47
2023/11/16 01:28:47;;;;;;;14.50;8.15;;;;;;;5.97;100.00;100671.47;4931768;29;20046;-45
2023/11/16 01:31:14;;;;;;;23.50;10.20;;;;;;;5.99;100.00;100679.38;4932334;29;20489;-45
2023/11/16 01:33:42;;;;;;;16.90;8.73;;;;;;;5.99;100.00;100665.66;4931484;29;20052;-46
2023/11/16 01:36:10;;;;;;;20.58;9.18;;;;;;;5.96;100.00;100669.84;4931386;29;20063;-49
2023/11/16 01:38:37;;;;;;;18.77;9.15;;;;;;;5.97;100.00;100665.16;4931869;29;20044;-49
2023/11/16 01:41:07;;;;;;;25.42;10.20;;;;;;;5.97;100.00;100656.91;4931750;29;20042;-45
2023/11/16 01:43:35;;;;;;;20.33;8.60;;;;;;;5.99;100.00;100651.91;4931598;29;20103;-46
2023/11/16 01:46:06;;;;;;;17.70;8.05;;;;;;;6.00;100.00;100646.13;4931714;29;20154;-49
2023/11/16 01:48:35;;;;;;;17.85;7.53;;;;;;;6.01;100.00;100647.72;4929555;29;20048;-46
2023/11/16 01:51:06;;;;;;;17.77;8.00;;;;;;;6.02;100.00;100634.78;4931358;29;20070;-48
2023/11/16 01:53:40;;;;;;;19.35;9.07;;;;;;;6.02;100.00;100640.28;4931950;29;20071;-46
2023/11/16 01:56:12;;;;;;;22.92;7.50;;;;;;;6.02;100.00;100641.09;4931397;29;20118;-45
2023/11/16 01:58:39;;;;;;;16.45;7.00;;;;;;;6.03;100.00;100644.66;4931831;29;20046;-45
2023/11/16 02:01:06;;;;;;;27.20;7.85;;;;;;;6.01;100.00;100628.47;4931279;29;20514;-45
2023/11/16 02:03:33;;;;;;;13.70;7.35;;;;;;;6.02;100.00;100621.88;4931504;29;20075;-45
2023/11/16 02:06:03;;;;;;;23.25;6.50;;;;;;;6.02;100.00;100613.63;4931173;29;20036;-45
2023/11/16 02:08:30;;;;;;;19.65;6.80;;;;;;;6.03;100.00;100604.25;4931399;29;20047;-46
2023/11/16 02:10:59;;;;;;;27.70;7.55;;;;;;;6.01;100.00;100598.25;4930894;29;20039;-45
2023/11/16 02:13:25;;;;;;;21.67;7.05;;;;;;;6.02;100.00;100588.06;4931072;29;20048;-47
2023/11/16 02:15:55;;;;;;;12.70;7.18;;;;;;;6.02;100.00;100590.81;4931110;29;20059;-46
2023/11/16 02:18:25;;;;;;;20.48;7.35;;;;;;;5.99;100.00;100597.78;4930730;29;20126;-48
2023/11/16 02:20:54;;;;;;;17.27;7.15;;;;;;;5.99;100.00;100596.94;4913211;29;20046;-46
2023/11/16 02:23:22;;;;;;;13.18;7.25;;;;;;;5.99;100.00;100594.19;4928951;29;20032;-47
2023/11/16 02:25:50;;;;;;;19.40;8.27;;;;;;;5.95;100.00;100601.47;4930558;29;20054;-45
2023/11/16 02:28:19;;;;;;;19.80;7.93;;;;;;;5.92;100.00;100600.19;4931330;29;20118;-46
2023/11/16 02:30:47;;;;;;;14.95;6.88;;;;;;;5.88;100.00;100585.44;4931023;29;20138;-45
2023/11/16 02:33:14;;;;;;;22.55;7.85;;;;;;;5.86;100.00;100597.88;4930566;29;20166;-46
2023/11/16 02:35:41;;;;;;;13.48;7.22;;;;;;;5.82;100.00;100588.63;4930839;29;20066;-46
2023/11/16 02:38:10;;;;;;;13.52;7.18;;;;;;;5.81;100.00;100589.75;4931026;29;20070;-49
2023/11/16 02:40:39;;;;;;;15.70;6.78;;;;;;;5.77;100.00;100589.56;4929532;29;20142;-45
2023/11/16 02:43:06;;;;;;;14.57;7.03;;;;;;;5.76;100.00;100598.94;4931031;29;20044;-49
2023/11/16 02:45:34;;;;;;;12.75;6.90;;;;;;;5.76;100.00;100609.13;4929356;29;20060;-45
2023/11/16 02:48:02;;;;;;;19.98;7.05;;;;;;;5.77;100.00;100602.50;4932320;29;20043;-45
2023/11/16 02:50:29;;;;;;;20.77;9.10;;;;;;;5.76;100.00;100603.63;4931949;29;20527;-48
2023/11/16 02:52:56;;;;;;;22.77;8.45;;;;;;;5.75;100.00;100608.31;4931887;29;20046;-46
2023/11/16 02:55:25;;;;;;;25.58;8.27;;;;;;;5.75;100.00;100608.31;4931644;29;20044;-45
2023/11/16 02:57:57;;;;;;;20.80;8.32;;;;;;;5.77;100.00;100610.75;4930934;29;20067;-46
2023/11/16 03:02:55;;;;;;;16.95;7.93;;;;;;;5.78;100.00;100591.19;5044746;22;20045;-46
2023/11/16 03:05:23;;;;;;;15.50;7.55;;;;;;;5.79;100.00;100589.25;5040562;28;20486;-47
2023/11/16 03:07:51;;;;;;;18.77;9.02;;;;;;;5.80;100.00;100583.44;5044717;28;20063;-45
2023/11/16 03:10:19;;;;;;;17.73;7.25;;;;;;;5.80;100.00;100571.66;5043593;28;20037;-46
2023/11/16 03:12:46;;;;;;;25.42;11.13;;;;;;;5.80;100.00;100566.16;5043698;28;20036;-46
2023/11/16 03:15:13;;;;;;;14.57;8.23;;;;;;;5.80;100.00;100566.16;5043834;28;20036;-45
2023/11/16 03:17:43;;;;;;;17.00;7.05;;;;;;;5.81;100.00;100560.34;5046538;28;20041;-46
2023/11/16 03:20:16;;;;;;;20.80;7.05;;;;;;;5.83;100.00;100560.81;5044076;28;20044;-46
2023/11/16 03:22:43;;;;;;;16.30;6.60;;;;;;;5.85;100.00;100557.81;5043158;28;20060;-51
2023/11/16 03:25:11;;;;;;;21.25;7.03;;;;;;;5.83;100.00;100558.09;5043086;28;20056;-47
2023/11/16 03:27:41;;;;;;;14.93;7.85;;;;;;;5.85;100.00;100560.56;5046342;28;20053;-47
2023/11/16 03:30:08;;;;;;;14.18;5.80;;;;;;;5.87;100.00;100566.53;5045408;28;20495;-50
2023/11/16 03:32:35;;;;;;;15.20;6.72;;;;;;;5.89;100.00;100564.28;5048456;28;20048;-46
2023/11/16 03:35:03;;;;;;;15.50;7.45;;;;;;;5.88;100.00;100551.66;5047623;28;20132;-47
2023/11/16 03:37:31;;;;;;;12.00;6.63;;;;;;;5.87;100.00;100550.88;5039353;28;20498;-45
2023/11/16 03:39:58;;;;;;;16.90;7.07;;;;;;;5.89;100.00;100561.53;5047947;28;20041;-45
2023/11/16 03:42:26;;;;;;;15.15;7.13;;;;;;;5.89;100.00;100551.34;5048250;28;20510;-46
2023/11/16 03:44:53;;;;;;;10.55;6.35;;;;;;;5.90;100.00;100554.91;5047976;28;20033;-46
2023/11/16 03:47:20;;;;;;;13.60;7.07;;;;;;;5.91;100.00;100554.59;5048176;28;20041;-45
2023/11/16 03:49:46;;;;;;;18.13;6.00;;;;;;;5.92;100.00;100552.66;5033930;28;20041;-47
2023/11/16 03:52:13;;;;;;;12.98;7.18;;;;;;;5.92;100.00;100549.91;5046467;28;20041;-46
2023/11/16 03:54:42;;;;;;;13.40;7.18;;;;;;;5.91;100.00;100534.53;5047814;28;20048;-45
2023/11/16 03:57:11;;;;;;;15.48;6.85;;;;;;;5.90;100.00;100539.25;5047867;28;20053;-46
2023/11/16 03:59:38;;;;;;;11.00;5.60;;;;;;;5.90;100.00;100533.75;5047602;28;20033;-45
2023/11/16 04:02:05;;;;;;;14.07;6.63;;;;;;;5.88;100.00;100529.69;5047823;28;20045;-45
2023/11/16 04:04:32;;;;;;;19.42;7.32;;;;;;;5.90;100.00;100544.75;5047770;28;20095;-47
2023/11/16 04:06:59;;;;;;;14.68;6.30;;;;;;;5.90;100.00;100541.19;5048124;28;20029;-52
2023/11/16 04:09:27;;;;;;;17.92;6.43;;;;;;;5.91;100.00;100540.03;5047447;28;20060;-46
2023/11/16 04:11:54;;;;;;;15.90;6.13;;;;;;;5.92;100.00;100530.66;5048105;28;20044;-46
2023/11/16 04:14:22;;;;;;;18.83;7.78;;;;;;;5.91;100.00;100546.34;5047121;28;20072;-46
2023/11/16 04:16:52;;;;;;;13.90;5.85;;;;;;;5.93;100.00;100529.56;5047776;28;20496;-46
2023/11/16 04:19:25;;;;;;;12.50;5.97;;;;;;;5.91;100.00;100531.78;5030328;28;20037;-46
2023/11/16 04:21:54;;;;;;;21.52;6.55;;;;;;;5.89;100.00;100520.31;5041218;28;20044;-49
2023/11/16 04:24:23;;;;;;;11.07;5.80;;;;;;;5.90;100.00;100522.75;5047435;28;20437;-46
2023/11/16 04:26:50;;;;;;;15.35;7.15;;;;;;;5.91;100.00;100529.84;5047500;28;20095;-45
2023/11/16 04:29:17;;;;;;;13.57;5.10;;;;;;;5.89;100.00;100526.63;5047423;28;20033;-46
2023/11/16 04:31:45;;;;;;;14.50;6.63;;;;;;;5.91;100.00;100526.28;5047397;28;20049;-48
2023/11/16 04:34:12;;;;;;;17.75;7.13;;;;;;;5.91;100.00;100526.28;5037425;28;20145;-47
2023/11/16 04:36:41;;;;;;;15.82;5.47;;;;;;;5.90;100.00;100525.50;5040087;28;20044;-47
2023/11/16 04:39:08;;;;;;;14.88;6.00;;;;;;;5.91;100.00;100529.84;5045070;28;20041;-48
2023/11/16 04:41:35;;;;;;;12.90;5.43;;;;;;;5.91;100.00;100523.53;5033233;28;20049;-47
2023/11/16 04:44:04;;;;;;;11.82;5.32;;;;;;;5.93;100.00;100521.31;5044258;28;20033;-47
2023/11/16 04:46:31;;;;;;;16.95;5.72;;;;;;;5.94;100.00;100522.91;5040777;28;20142;-45
2023/11/16 04:49:00;;;;;;;11.73;5.10;;;;;;;5.93;100.00;100527.59;5045208;28;20049;-46
2023/11/16 04:51:27;;;;;;;12.45;5.05;;;;;;;5.94;100.00;100522.91;5046167;28;20052;-46
2023/11/16 04:53:54;;;;;;;17.80;6.43;;;;;;;5.94;100.00;100531.16;5045417;28;20132;-46
2023/11/16 04:56:20;;;;;;;12.75;5.22;;;;;;;5.94;100.00;100545.72;5045849;28;20115;-47
2023/11/16 04:58:48;;;;;;;21.77;6.47;;;;;;;5.93;100.00;100533.09;5028313;28;20037;-46
2023/11/16 05:01:16;;;;;;;18.73;5.53;;;;;;;5.93;100.00;100538.59;5045416;28;20084;-45
2023/11/16 05:03:46;;;;;;;15.93;7.22;;;;;;;5.93;100.00;100538.59;5036516;28;20088;-46
2023/11/16 05:06:14;;;;;;;13.23;6.53;;;;;;;5.93;100.00;100537.81;5042097;28;20437;-46
2023/11/16 05:08:42;;;;;;;18.15;6.40;;;;;;;5.94;100.00;100533.91;5045974;28;20049;-47
2023/11/16 05:11:08;;;;;;;18.30;5.95;;;;;;;5.95;100.00;100538.28;5044386;28;20044;-50
2023/11/16 05:13:35;;;;;;;14.23;6.57;;;;;;;5.95;100.00;100541.84;5032908;28;20051;-48
2023/11/16 05:16:05;;;;;;;10.48;6.47;;;;;;;5.96;100.00;100543.44;5042328;28;20495;-45
2023/11/16 05:18:32;;;;;;;12.73;6.22;;;;;;;5.97;100.00;100545.06;5045042;28;20037;-46
2023/11/16 05:21:04;;;;;;;21.10;6.80;;;;;;;6.00;100.00;100544.44;5041811;28;20415;-46
2023/11/16 05:23:31;;;;;;;19.23;7.73;;;;;;;6.01;100.00;100539.75;5040460;28;20449;-45
2023/11/16 05:25:57;;;;;;;13.50;6.32;;;;;;;6.03;100.00;100526.50;5045735;28;20502;-46
2023/11/16 05:28:25;;;;;;;10.13;5.97;;;;;;;6.04;100.00;100528.09;5044862;28;20053;-46
2023/11/16 05:30:52;;;;;;;18.15;6.32;;;;;;;6.04;100.00;100525.34;5045437;28;20098;-45
2023/11/16 05:33:24;;;;;;;14.32;6.57;;;;;;;6.05;100.00;100518.75;5044993;28;20084;-50
2023/11/16 05:35:51;;;;;;;15.95;6.53;;;;;;;6.08;100.00;100515.34;5047066;28;20387;-46
2023/11/16 05:38:22;;;;;;;15.70;7.35;;;;;;;6.08;100.00;100513.41;5046657;28;20116;-47
2023/11/16 05:40:51;;;;;;;13.20;6.07;;;;;;;6.10;100.00;100515.84;5047087;28;20505;-45
2023/11/16 05:43:19;;;;;;;14.30;6.13;;;;;;;6.11;100.00;100506.47;5046094;28;20037;-45
2023/11/16 05:45:46;;;;;;;16.65;6.68;;;;;;;6.10;100.00;100515.84;5049141;28;20069;-45
2023/11/16 05:48:14;;;;;;;13.82;5.78;;;;;;;6.11;100.00;100509.22;5050239;28;20083;-45
2023/11/16 05:50:42;;;;;;;14.07;6.70;;;;;;;6.11;100.00;100506.47;5050626;28;20056;-45
2023/11/16 05:53:11;;;;;;;18.77;7.88;;;;;;;6.09;100.00;100509.53;5049430;28;20041;-46
2023/11/16 05:55:38;;;;;;;14.77;6.45;;;;;;;6.09;100.00;100500.47;5050419;28;20380;-48
2023/11/16 05:58:07;;;;;;;21.20;6.70;;;;;;;6.09;100.00;100504.03;5036707;28;20045;-46
2023/11/16 06:00:36;;;;;;;17.63;6.32;;;;;;;6.09;100.00;100517.78;5049972;28;20460;-52
2023/11/16 06:03:05;;;;;;;15.10;5.22;;;;;;;6.10;100.00;100510.34;5050345;28;20053;-47
2023/11/16 06:05:35;;;;;;;14.43;6.13;;;;;;;6.09;100.00;100505.97;5050346;28;20048;-50
2023/11/16 06:08:03;;;;;;;13.45;6.07;;;;;;;6.09;100.00;100508.72;5032835;28;20063;-46
2023/11/16 06:10:30;;;;;;;15.15;6.63;;;;;;;6.11;100.00;100506.47;5049945;28;20164;-45
2023/11/16 06:12:58;;;;;;;13.65;5.93;;;;;;;6.10;100.00;100508.41;5050130;28;20398;-46
2023/11/16 06:15:28;;;;;;;17.20;7.00;;;;;;;6.10;100.00;100510.34;5049158;28;20059;-45
2023/11/16 06:18:00;;;;;;;15.65;6.32;;;;;;;6.09;100.00;100511.47;5050002;28;20049;-45
2023/11/16 06:20:30;;;;;;;23.90;7.07;;;;;;;6.06;100.00;100506.63;5049562;28;21416;-48
2023/11/16 06:22:57;;;;;;;12.07;6.45;;;;;;;6.06;100.00;100512.13;5050052;28;20102;-46
2023/11/16 06:25:24;;;;;;;22.98;7.00;;;;;;;6.08;100.00;100507.13;5049381;28;20041;-46
2023/11/16 06:27:52;;;;;;;17.27;6.68;;;;;;;6.04;100.00;100509.69;5032225;28;20083;-46
2023/11/16 06:30:20;;;;;;;17.25;7.47;;;;;;;6.04;100.00;100517.09;5049784;28;20049;-45
2023/11/16 06:32:47;;;;;;;19.33;6.78;;;;;;;6.03;100.00;100516.31;5045080;28;20390;-45
2023/11/16 06:35:14;;;;;;;19.00;5.85;;;;;;;6.02;100.00;100513.88;5047081;28;20051;-48
2023/11/16 06:37:42;;;;;;;15.65;6.47;;;;;;;6.02;100.00;100509.19;5049586;28;20048;-45
2023/11/16 06:40:09;;;;;;;12.43;5.80;;;;;;;6.02;100.00;100511.13;5048623;28;20111;-47
2023/11/16 06:42:37;;;;;;;25.92;7.15;;;;;;;6.02;100.00;100506.44;5049626;28;20482;-45
2023/11/16 06:45:06;;;;;;;23.73;7.07;;;;;;;6.01;100.00;100507.56;5049401;28;20068;-45
2023/11/16 06:47:34;;;;;;;15.82;6.22;;;;;;;6.02;100.00;100511.13;5048376;28;20045;-48
2023/11/16 06:50:03;;;;;;;19.92;7.18;;;;;;;6.02;100.00;100522.13;5049091;28;20041;-48
2023/11/16 06:52:31;;;;;;;17.10;6.07;;;;;;;6.03;100.00;100529.25;5049544;28;20041;-53
2023/11/16 06:54:59;;;;;;;12.43;5.50;;;;;;;6.03;100.00;100526.50;5036203;28;20049;-45
2023/11/16 06:57:28;;;;;;;17.67;6.60;;;;;;;6.03;100.00;100529.25;5047737;28;20043;-45
2023/11/16 06:59:57;;;;;;;17.67;6.72;;;;;;;6.03;100.00;100532.00;5049219;28;20037;-45
2023/11/16 07:02:23;;;;;;;12.50;6.10;;;;;;;6.02;100.00;100528.44;5048471;28;20732;-45
2023/11/16 07:04:50;;;;;;;22.77;6.57;;;;;;;6.02;100.00;100517.44;5048947;28;20142;-49
2023/11/16 07:07:17;;;;;;;20.20;6.88;;;;;;;6.03;100.00;100521.00;5048740;28;20565;-45
2023/11/16 07:09:49;;;;;;;21.15;6.53;;;;;;;6.02;100.00;100519.38;5049308;28;20478;-45
2023/11/16 07:12:20;;;;;;;14.57;5.95;;;;;;;6.00;100.00;100521.63;5048772;28;20391;-46
2023/11/16 07:14:48;;;;;;;18.20;6.65;;;;;;;6.00;100.00;100516.16;5048632;28;20052;-45
2023/11/16 07:17:20;;;;;;;16.02;6.85;;;;;;;5.99;100.00;100520.00;5044873;28;20038;-46
2023/11/16 07:19:48;;;;;;;22.08;5.15;;;;;;;5.99;100.00;100517.25;5031713;28;20038;-45
2023/11/16 07:22:15;;;;;;;16.83;6.03;;;;;;;5.97;100.00;100520.34;5046788;28;20045;-46
2023/11/16 07:24:43;;;;;;;17.73;5.43;;;;;;;5.99;100.00;100514.50;5048757;28;20037;-45
2023/11/16 07:27:12;;;;;;;10.48;4.82;;;;;;;5.97;100.00;100516.78;5048498;28;20498;-45
2023/11/16 07:29:42;;;;;;;16.27;6.43;;;;;;;5.96;100.00;100509.66;5041909;28;20080;-45
2023/11/16 07:32:11;;;;;;;14.63;6.47;;;;;;;5.97;100.00;100525.84;5041911;28;20452;-46
2023/11/16 07:34:41;;;;;;;12.50;5.47;;;;;;;5.95;100.00;100525.34;5047488;28;20047;-46
2023/11/16 07:37:08;;;;;;;11.43;5.38;;;;;;;5.94;100.00;100525.66;5048721;28;20120;-46
2023/11/16 07:39:35;;;;;;;14.82;6.00;;;;;;;5.92;100.00;100527.94;5048623;28;20071;-46
2023/11/16 07:42:02;;;;;;;13.25;5.63;;;;;;;5.92;100.00;100536.16;5048116;28;20556;-46
2023/11/16 07:44:28;;;;;;;13.18;5.45;;;;;;;5.93;100.00;100529.56;5048202;28;20091;-46
2023/11/16 07:46:55;;;;;;;21.50;7.05;;;;;;;5.94;100.00;100534.72;5048196;28;20047;-47
2023/11/16 07:49:23;;;;;;;15.38;5.75;;;;;;;5.95;100.00;100538.28;5047958;28;20048;-45
2023/11/16 07:51:51;;;;;;;16.23;5.85;;;;;;;5.95;100.00;100532.78;5048520;28;20051;-46
2023/11/16 07:54:18;;;;;;;13.60;6.47;;;;;;;5.96;100.00;100529.69;5045967;28;20053;-45
2023/11/16 07:57:01;;;;;;;18.33;7.07;;;;;;;5.97;100.00;100536.00;5028992;28;20127;-45
2023/11/16 07:59:32;;;;;;;25.40;10.50;;;;;;;5.96;100.00;100537.13;5045843;28;20518;-46
2023/11/16 08:02:00;;;;;;;24.45;8.52;;;;;;;5.97;100.00;100544.25;5048661;28;20049;-45
2023/11/16 08:04:34;;;;;;;21.20;8.65;;;;;;;5.97;100.00;100545.06;5043948;28;20529;-45
2023/11/16 08:07:03;;;;;;;20.85;8.60;;;;;;;5.97;100.00;100547.81;5038628;28;20037;-46
2023/11/16 08:09:31;;;;;;;24.23;9.43;;;;;;;5.97;100.00;100549.75;5045136;28;20143;-46
2023/11/16 08:11:59;;;;;;;22.23;9.88;;;;;;;5.97;100.00;100555.25;5041873;28;20029;-46
2023/11/16 08:14:26;;;;;;;25.70;9.07;;;;;;;5.98;100.00;100537.66;5040590;28;20148;-45
2023/11/16 08:16:58;;;;;;;23.90;10.05;;;;;;;5.99;100.00;100552.97;5047489;28;20064;-53
2023/11/16 08:19:31;;;;;;;17.60;7.45;;;;;;;5.99;100.00;100555.72;5042055;28;20146;-46
2023/11/16 08:21:59;;;;;;;25.60;11.38;;;;;;;6.00;100.00;100558.19;5044094;28;20068;-46
2023/11/16 08:24:26;;;;;;;22.85;11.15;;;;;;;6.00;100.00;100560.13;5039652;28;20057;-44
2023/11/16 08:26:56;;;;;;;40.55;18.40;;;;;;;6.01;100.00;100567.25;5046793;28;20136;-45
2023/11/16 08:29:23;;;;;;;50.22;19.42;;;;;;;6.03;100.00;100576.78;5028500;28;20056;-44
2023/11/16 08:31:54;;;;;;;38.10;17.88;;;;;;;6.03;100.00;100559.47;5045477;28;20044;-43
2023/11/16 08:34:23;;;;;;;42.30;16.52;;;;;;;6.05;100.00;100565.47;5028834;28;20053;-44
2023/11/16 08:36:50;;;;;;;31.98;13.52;;;;;;;6.07;100.00;100574.19;5045795;28;20474;-46
2023/11/16 08:39:17;;;;;;;32.15;12.38;;;;;;;6.09;100.00;100569.16;5045584;28;20052;-44
2023/11/16 08:41:45;;;;;;;25.30;10.80;;;;;;;6.12;100.00;100579.53;5045808;28;20144;-45
2023/11/16 08:44:11;;;;;;;22.95;9.40;;;;;;;6.10;100.00;100576.31;5046812;28;20573;-44
2023/11/16 08:46:45;;;;;;;18.70;10.07;;;;;;;6.12;100.00;100580.34;5047541;28;20037;-44
2023/11/16 08:49:12;;;;;;;22.65;8.88;;;;;;;6.15;100.00;100584.38;5047590;28;20043;-43
2023/11/16 08:51:39;;;;;;;22.23;9.07;;;;;;;6.14;100.00;100577.28;5046798;28;20033;-43
2023/11/16 08:54:08;;;;;;;21.05;9.23;;;;;;;6.17;100.00;100582.13;5047616;28;20036;-44
2023/11/16 08:56:36;;;;;;;18.67;9.35;;;;;;;6.20;100.00;100583.44;5034349;28;20613;-43
2023/11/16 08:59:09;;;;;;;29.83;10.05;;;;;;;6.23;100.00;100591.84;5046823;28;20052;-43
2023/11/16 09:01:37;;;;;;;18.30;8.63;;;;;;;6.29;100.00;100596.06;5047272;28;20045;-44
2023/11/16 09:04:06;;;;;;;34.15;13.60;;;;;;;6.34;100.00;100589.59;5047121;28;20532;-44
2023/11/16 09:06:34;;;;;;;24.75;10.70;;;;;;;6.42;100.00;100600.63;5047607;28;20072;-43
2023/11/16 09:09:09;;;;;;;24.70;10.80;;;;;;;6.48;100.00;100599.34;5046994;28;20053;-44
2023/11/16 09:11:36;;;;;;;24.25;11.73;;;;;;;6.54;100.00;100589.78;5046864;28;20067;-43
2023/11/16 09:14:06;;;;;;;30.35;12.13;;;;;;;6.60;100.00;100590.44;5047084;28;20037;-46
2023/11/16 09:16:33;;;;;;;30.83;14.05;;;;;;;6.65;100.00;100599.34;5046855;28;20041;-43
2023/11/16 09:19:00;;;;;;;30.27;13.68;;;;;;;6.69;100.00;100594.03;5047059;28;20041;-44
2023/11/16 09:21:29;;;;;;;38.47;16.67;;;;;;;6.71;100.00;100597.25;5050624;28;20036;-43
2023/11/16 09:23:56;;;;;;;28.23;13.00;;;;;;;6.75;100.00;100593.53;5050598;28;20139;-44
2023/11/16 09:26:23;;;;;;;34.55;15.35;;;;;;;6.80;100.00;100594.53;5051029;28;20051;-43
2023/11/16 09:28:52;;;;;;;28.33;14.55;;;;;;;6.83;100.00;100600.16;5050570;28;20045;-44
2023/11/16 09:31:33;;;;;;;31.83;12.75;;;;;;;6.87;100.00;100592.09;5050187;28;20049;-43
2023/11/16 09:34:00;;;;;;;29.48;13.32;;;;;;;6.92;100.00;100597.41;5031164;28;20049;-43
2023/11/16 09:36:27;;;;;;;30.40;12.32;;;;;;;6.96;100.00;100596.47;5013509;28;20049;-44
2023/11/16 09:38:57;;;;;;;30.65;12.30;;;;;;;7.01;100.00;100596.31;5050957;28;20049;-44
2023/11/16 09:41:28;;;;;;;35.75;13.98;;;;;;;7.05;100.00;100604.69;5050585;28;20049;-44
2023/11/16 09:44:01;;;;;;;27.55;10.43;;;;;;;7.11;100.00;100600.66;5050962;28;20056;-44
2023/11/16 09:46:31;;;;;;;30.55;9.98;;;;;;;7.15;100.00;100607.09;5050170;28;20045;-44
2023/11/16 09:48:58;;;;;;;29.77;9.20;;;;;;;7.19;100.00;100613.59;5050668;28;20036;-43
2023/11/16 09:51:29;;;;;;;22.33;10.20;;;;;;;7.21;100.00;100612.13;5019853;28;20497;-43
2023/11/16 09:54:01;;;;;;;36.70;9.88;;;;;;;7.24;100.00;100624.44;5050539;28;20037;-43
2023/11/16 09:56:30;;;;;;;24.35;9.25;;;;;;;7.26;100.00;100624.91;5050362;28;20422;-43
2023/11/16 09:59:14;;;;;;;22.60;8.35;;;;;;;7.31;100.00;100622.00;5050115;28;20041;-43
2023/11/16 10:01:52;;;;;;;31.45;9.63;;;;;;;7.39;100.00;100623.94;5050238;28;20057;-45
2023/11/16 10:04:20;;;;;;;22.08;8.63;;;;;;;7.50;100.00;100616.94;5050237;28;20415;-47
2023/11/16 10:06:49;;;;;;;25.77;7.97;;;;;;;7.61;100.00;100609.94;5050178;28;20045;-47
2023/11/16 10:09:17;;;;;;;23.15;8.02;;;;;;;7.71;100.00;100623.38;5049715;28;20135;-44
2023/11/16 10:11:44;;;;;;;23.55;7.25;;;;;;;7.79;100.00;100608.75;5050515;28;20112;-44
2023/11/16 10:14:11;;;;;;;15.07;6.90;;;;;;;7.86;100.00;100613.75;5028986;28;20052;-43
2023/11/16 10:16:38;;;;;;;13.13;6.10;;;;;;;7.89;100.00;100615.84;5041760;28;20048;-44
2023/11/16 10:19:07;;;;;;;17.77;5.57;;;;;;;7.93;100.00;100616.81;5047385;28;20498;-44
2023/11/16 10:21:48;;;;;;;20.65;6.22;;;;;;;7.96;100.00;100614.22;5042542;28;20059;-45
2023/11/16 10:24:15;;;;;;;19.13;6.50;;;;;;;7.99;100.00;100621.00;5049546;28;20037;-43
2023/11/16 10:26:52;;;;;;;21.33;6.75;;;;;;;8.03;100.00;100623.88;5049722;28;20065;-47
2023/11/16 10:29:18;;;;;;;24.20;5.63;;;;;;;8.03;100.00;100621.13;5049854;28;20041;-44
2023/11/16 10:31:46;;;;;;;25.10;6.45;;;;;;;8.03;100.00;100623.88;5048106;28;20068;-44
2023/11/16 10:34:15;;;;;;;16.23;6.10;;;;;;;8.05;100.00;100627.16;5049264;28;20391;-44
2023/11/16 10:36:43;;;;;;;16.30;4.45;;;;;;;8.05;100.00;100619.66;5049712;28;20033;-44
2023/11/16 10:39:12;;;;;;;17.98;4.20;;;;;;;8.05;100.00;100627.16;5049460;28;20502;-45
2023/11/16 10:41:39;;;;;;;9.48;3.95;;;;;;;8.03;100.00;100616.44;5049904;28;20045;-43
2023/11/16 10:44:07;;;;;;;15.60;4.20;;;;;;;8.05;100.00;100627.16;5050012;28;20090;-45
2023/11/16 10:46:35;;;;;;;16.27;5.72;;;;;;;8.05;100.00;100624.41;5048830;28;20066;-44
2023/11/16 10:49:01;;;;;;;16.55;4.80;;;;;;;8.05;100.00;100625.19;5049328;28;20043;-43
2023/11/16 10:51:29;;;;;;;14.63;4.30;;;;;;;8.06;100.00;100631.50;5049187;28;20040;-43
2023/11/16 10:54:02;;;;;;;19.65;5.63;;;;;;;8.08;100.00;100623.69;5049672;28;20045;-43
2023/11/16 10:56:31;;;;;;;12.65;4.97;;;;;;;8.09;100.00;100617.88;5048777;28;20041;-45
2023/11/16 10:59:05;;;;;;;18.50;5.30;;;;;;;8.13;100.00;100620.78;5048716;28;20047;-44
2023/11/16 11:01:34;;;;;;;23.27;4.78;;;;;;;8.15;100.00;100621.25;5031215;28;20049;-44
2023/11/16 11:04:01;;;;;;;11.85;4.18;;;;;;;8.16;100.00;100625.63;5035807;28;20042;-44
2023/11/16 11:06:29;;;;;;;11.07;4.18;;;;;;;8.18;100.00;100620.59;5049349;28;20044;-44
2023/11/16 11:08:59;;;;;;;11.70;3.75;;;;;;;8.21;100.00;100622.66;5048664;28;20461;-44
2023/11/16 11:11:28;;;;;;;17.83;4.45;;;;;;;8.23;100.00;100626.72;5039910;28;20502;-46
2023/11/16 11:13:57;;;;;;;19.25;5.53;;;;;;;8.25;100.00;100621.69;5043789;28;20103;-43
2023/11/16 11:16:28;;;;;;;22.48;7.95;;;;;;;8.27;100.00;100626.88;5039956;28;20099;-44
2023/11/16 11:18:57;;;;;;;12.38;4.22;;;;;;;8.28;100.00;100617.50;5030639;28;20055;-44
2023/11/16 11:21:26;;;;;;;12.13;5.25;;;;;;;8.29;100.00;100619.91;5039114;28;20061;-43
2023/11/16 11:24:05;;;;;;;11.55;4.03;;;;;;;8.32;100.00;100624.75;5048839;28;20037;-40